Time;durP1;ratioP1;P1;durP2;ratioP2;P2;SDS_P1;SDS_P2;PMS_P1;PMS_P2;Temp;Humidity;BMP_temperature;BMP_pressure;BME280_temperature;BME280_humidity;BME280_pressure;Samples;Min_cycle;Max_cycle;Signal;HPM_P1;HPM_P2
2022/12/15 00:40:57;;;;;;;26.45;11.63;;;-5.00;99.90;;;;;;5023124;28;20435;-73
2022/12/15 00:43:24;;;;;;;29.85;11.18;;;-5.10;99.90;;;;;;5027847;28;20366;-72
2022/12/15 00:48:34;;;;;;;28.45;12.07;;;-5.10;99.90;;;;;;5042017;28;20043;-73
2022/12/15 00:50:59;;;;;;;26.20;12.00;;;-5.00;99.90;;;;;;5033049;28;20533;-73
2022/12/15 01:20:58;;;;;;;23.23;10.80;;;-5.10;99.90;;;;;;5027310;28;20037;-73
2022/12/15 01:23:23;;;;;;;26.33;11.38;;;-5.10;99.90;;;;;;5013002;28;20030;-72
2022/12/15 01:25:53;;;;;;;26.60;11.38;;;-5.10;99.90;;;;;;5033274;28;20041;-73
2022/12/15 01:28:20;;;;;;;24.65;10.70;;;-5.10;99.90;;;;;;5022560;28;20518;-73
2022/12/15 01:30:46;;;;;;;26.33;11.90;;;-5.10;99.90;;;;;;5023033;28;20030;-73
2022/12/15 01:33:12;;;;;;;25.25;11.02;;;-5.10;99.90;;;;;;5036849;28;20385;-72
2022/12/15 01:35:38;;;;;;;26.42;10.88;;;-5.10;99.90;;;;;;5015236;28;20014;-72
2022/12/15 01:38:03;;;;;;;27.10;11.50;;;-5.20;99.90;;;;;;5022416;28;20189;-72
2022/12/15 01:40:44;;;;;;;25.55;10.90;;;-5.20;99.90;;;;;;5037824;28;20022;-72
2022/12/15 01:43:15;;;;;;;27.23;10.98;;;-5.20;99.90;;;;;;5029431;28;20034;-72
2022/12/15 01:45:49;;;;;;;23.38;11.13;;;-5.20;99.90;;;;;;5029374;28;20033;-72
2022/12/15 01:48:41;;;;;;;24.90;11.13;;;-5.30;99.90;;;;;;5028979;28;20120;-73
2022/12/15 01:51:28;;;;;;;26.70;11.23;;;-5.30;99.90;;;;;;5023669;28;20564;-73
2022/12/15 01:53:58;;;;;;;26.58;10.65;;;-5.30;99.90;;;;;;5022516;28;20087;-73
2022/12/15 01:56:25;;;;;;;28.30;11.88;;;-5.40;99.90;;;;;;5029356;28;20485;-73
2022/12/15 01:58:55;;;;;;;27.20;11.48;;;-5.40;99.90;;;;;;5025929;28;20075;-72
2022/12/15 02:01:21;;;;;;;27.70;11.05;;;-5.30;99.90;;;;;;5023816;28;20021;-72
2022/12/15 02:03:47;;;;;;;27.45;11.40;;;-5.40;99.90;;;;;;5024803;28;20424;-72
2022/12/15 02:06:15;;;;;;;25.55;10.98;;;-5.40;99.90;;;;;;5025679;28;20389;-73
2022/12/15 02:08:43;;;;;;;25.83;10.77;;;-5.40;99.90;;;;;;5031072;28;20476;-74
2022/12/15 02:11:46;;;;;;;26.17;10.77;;;-5.40;99.90;;;;;;5032642;28;20045;-73
2022/12/15 02:14:19;;;;;;;28.30;10.60;;;-5.50;99.90;;;;;;5028199;28;20028;-73
2022/12/15 02:16:57;;;;;;;23.33;10.30;;;-5.50;99.90;;;;;;5031406;28;20116;-72
2022/12/15 02:19:31;;;;;;;24.52;11.35;;;-5.70;99.90;;;;;;5029540;28;20037;-73
2022/12/15 02:22:11;;;;;;;25.08;11.05;;;-5.70;99.90;;;;;;5027149;28;20030;-72
2022/12/15 02:25:07;;;;;;;24.05;10.70;;;-5.70;99.90;;;;;;5022847;28;20022;-72
2022/12/15 02:28:02;;;;;;;26.95;10.90;;;-5.70;99.90;;;;;;5018529;28;20100;-73
2022/12/15 02:30:33;;;;;;;26.90;10.63;;;-5.70;99.90;;;;;;5023520;28;20029;-72
2022/12/15 02:33:05;;;;;;;22.20;10.25;;;-5.70;99.90;;;;;;5024603;28;20374;-72
2022/12/15 02:35:58;;;;;;;22.52;10.35;;;-5.70;99.90;;;;;;5021755;28;20049;-73
2022/12/15 02:38:36;;;;;;;28.75;11.75;;;-5.70;99.90;;;;;;5023439;28;20040;-72
2022/12/15 02:41:03;;;;;;;27.60;11.48;;;-5.70;99.90;;;;;;5022836;28;20422;-73
2022/12/15 02:43:34;;;;;;;25.58;11.00;;;-5.70;99.90;;;;;;5029229;28;20052;-73
2022/12/15 02:46:33;;;;;;;25.20;11.18;;;-5.70;99.90;;;;;;5026128;28;20120;-72
2022/12/15 02:49:21;;;;;;;23.77;10.20;;;-5.70;99.90;;;;;;4977979;28;20092;-73
2022/12/15 02:52:03;;;;;;;26.85;11.32;;;-5.70;99.90;;;;;;5033198;28;20040;-73
2022/12/15 02:54:43;;;;;;;24.77;10.77;;;-5.70;99.90;;;;;;5028424;28;20050;-72
2022/12/15 02:57:30;;;;;;;26.17;10.85;;;-5.70;99.90;;;;;;5017757;28;20030;-72
2022/12/15 03:00:01;;;;;;;27.45;11.23;;;-5.70;99.90;;;;;;5035617;28;20040;-73
2022/12/15 03:02:30;;;;;;;29.38;11.52;;;-5.60;99.90;;;;;;5025854;28;20033;-73
2022/12/15 03:04:57;;;;;;;28.63;11.90;;;-5.60;99.90;;;;;;5023156;28;20547;-73
2022/12/15 03:07:26;;;;;;;28.67;11.95;;;-5.60;99.90;;;;;;5023019;28;20097;-72
2022/12/15 03:09:55;;;;;;;31.95;13.65;;;-5.60;99.90;;;;;;5025892;28;20034;-72
2022/12/15 03:12:20;;;;;;;25.67;11.60;;;-5.60;99.90;;;;;;5036149;28;20029;-72
2022/12/15 03:14:46;;;;;;;25.05;10.85;;;-5.60;99.90;;;;;;5048725;28;20030;-72
2022/12/15 03:17:12;;;;;;;25.77;12.40;;;-5.50;99.90;;;;;;5031833;28;20021;-73
2022/12/15 03:19:37;;;;;;;25.52;12.82;;;-5.50;99.90;;;;;;5028066;28;20143;-72
2022/12/15 03:22:03;;;;;;;29.67;11.95;;;-5.50;99.90;;;;;;5032502;28;20033;-72
2022/12/15 03:24:28;;;;;;;28.77;12.02;;;-5.50;99.90;;;;;;5031857;28;20041;-73
2022/12/15 03:26:54;;;;;;;29.35;12.43;;;-5.50;99.90;;;;;;5031665;28;20060;-72
2022/12/15 03:29:20;;;;;;;30.20;12.95;;;-5.50;99.90;;;;;;5032129;28;20037;-72
2022/12/15 03:31:45;;;;;;;31.33;12.48;;;-5.40;99.90;;;;;;5033358;28;20032;-72
2022/12/15 03:34:11;;;;;;;31.00;13.00;;;-5.40;99.90;;;;;;5027762;28;20065;-73
2022/12/15 03:36:37;;;;;;;34.60;13.75;;;-5.40;99.90;;;;;;5028966;28;20026;-73
2022/12/15 03:39:02;;;;;;;34.03;13.90;;;-5.40;99.90;;;;;;5033030;28;20038;-73
2022/12/15 03:41:28;;;;;;;30.17;13.40;;;-5.30;99.90;;;;;;5037317;28;20109;-74
2022/12/15 03:43:54;;;;;;;28.27;12.25;;;-5.30;99.90;;;;;;5021562;28;20026;-73
2022/12/15 03:46:19;;;;;;;27.52;13.20;;;-5.40;99.90;;;;;;5018565;28;20481;-73
2022/12/15 03:48:45;;;;;;;26.63;11.75;;;-5.40;99.90;;;;;;5018460;28;20034;-73
2022/12/15 03:51:10;;;;;;;28.77;13.15;;;-5.50;99.90;;;;;;5035214;28;20033;-73
2022/12/15 03:53:36;;;;;;;30.17;13.55;;;-5.50;99.90;;;;;;5024845;28;20070;-72
2022/12/15 03:56:02;;;;;;;24.60;12.13;;;-5.50;99.90;;;;;;5029524;28;20075;-72
2022/12/15 03:58:27;;;;;;;28.17;12.75;;;-5.50;99.90;;;;;;5032940;28;20049;-72
2022/12/15 04:00:53;;;;;;;30.25;13.70;;;-5.60;99.90;;;;;;5028276;28;20685;-73
2022/12/15 04:03:18;;;;;;;31.05;13.80;;;-5.60;99.90;;;;;;5031221;28;20070;-72
2022/12/15 04:05:44;;;;;;;30.23;13.23;;;-5.60;99.90;;;;;;5018660;28;20038;-73
2022/12/15 04:08:10;;;;;;;30.58;13.40;;;-5.60;99.90;;;;;;5022189;28;20048;-73
2022/12/15 04:10:35;;;;;;;30.42;13.82;;;-5.60;99.90;;;;;;5025695;28;20026;-73
2022/12/15 04:13:04;;;;;;;30.17;13.75;;;-5.60;99.90;;;;;;5038490;28;20026;-72
2022/12/15 04:15:30;;;;;;;26.50;12.40;;;-5.60;99.90;;;;;;5028671;28;20029;-72
2022/12/15 04:17:57;;;;;;;31.73;13.80;;;-5.70;99.90;;;;;;5028182;28;20033;-72
2022/12/15 04:20:22;;;;;;;30.02;12.85;;;-5.70;99.90;;;;;;5032975;28;20489;-72
2022/12/15 04:22:49;;;;;;;27.60;12.85;;;-5.70;99.90;;;;;;5023321;28;20022;-72
2022/12/15 05:34:11;;;;;;;37.90;16.42;;;-6.00;99.90;;;;;;5028068;28;20029;-72
2022/12/15 05:36:37;;;;;;;42.03;17.50;;;-5.90;99.90;;;;;;5030646;28;20030;-72
2022/12/15 05:39:03;;;;;;;36.10;16.13;;;-5.90;99.90;;;;;;5037726;28;20060;-73
2022/12/15 05:41:28;;;;;;;38.75;15.30;;;-5.90;99.90;;;;;;5028940;28;20097;-72
2022/12/15 05:43:54;;;;;;;35.08;15.18;;;-5.90;99.90;;;;;;5029172;28;20021;-72
2022/12/15 05:46:20;;;;;;;34.55;15.35;;;-5.80;99.90;;;;;;5015755;28;20180;-72
2022/12/15 05:48:46;;;;;;;36.75;17.00;;;-5.80;99.90;;;;;;5019296;28;20034;-72
2022/12/15 05:51:12;;;;;;;36.03;16.77;;;-5.80;99.90;;;;;;5021909;28;20498;-73
2022/12/15 05:53:39;;;;;;;36.83;17.45;;;-5.80;99.90;;;;;;5030385;28;20388;-73
2022/12/15 05:56:09;;;;;;;33.22;15.50;;;-5.80;99.90;;;;;;5015435;28;20064;-72
2022/12/15 05:58:35;;;;;;;36.35;16.35;;;-5.80;99.90;;;;;;5026906;28;20041;-73
2022/12/15 06:01:10;;;;;;;38.38;17.52;;;-5.80;99.90;;;;;;5029306;28;20387;-73
2022/12/15 06:03:36;;;;;;;35.65;15.60;;;-5.80;99.90;;;;;;5017670;28;20378;-72
2022/12/15 06:06:05;;;;;;;40.55;16.00;;;-5.80;99.90;;;;;;5026168;28;20076;-73
2022/12/15 06:08:33;;;;;;;38.30;17.27;;;-5.80;99.90;;;;;;5023708;28;20029;-73
2022/12/15 06:10:59;;;;;;;40.53;16.65;;;-5.70;99.90;;;;;;5022507;28;20051;-72
2022/12/15 06:13:26;;;;;;;40.55;17.42;;;-5.80;99.90;;;;;;5027614;28;20047;-72
2022/12/15 06:16:00;;;;;;;40.20;15.85;;;-5.80;99.90;;;;;;5029708;28;20112;-73
2022/12/15 06:18:29;;;;;;;35.50;15.98;;;-5.80;99.90;;;;;;5031711;28;20033;-72
2022/12/15 06:20:59;;;;;;;36.85;16.23;;;-5.80;99.90;;;;;;5034422;28;20049;-72
2022/12/15 06:23:26;;;;;;;34.38;15.07;;;-5.90;99.90;;;;;;5046323;28;20033;-72
2022/12/15 06:25:52;;;;;;;35.95;16.02;;;-5.90;99.90;;;;;;5028132;28;20086;-73
2022/12/15 06:28:22;;;;;;;42.88;16.27;;;-5.90;99.90;;;;;;5040420;28;20025;-72
2022/12/15 06:30:49;;;;;;;37.08;15.82;;;-5.90;99.90;;;;;;5028728;28;20017;-73
2022/12/15 06:33:15;;;;;;;43.92;17.92;;;-5.90;99.90;;;;;;5026828;28;20505;-72
2022/12/15 06:35:40;;;;;;;39.15;17.05;;;-5.90;99.90;;;;;;5029065;28;20060;-72
2022/12/15 06:38:06;;;;;;;34.97;15.95;;;-5.90;99.90;;;;;;5038112;28;20112;-72
2022/12/15 06:40:31;;;;;;;35.90;16.77;;;-5.90;99.90;;;;;;5033194;28;20059;-72
2022/12/15 06:42:57;;;;;;;42.35;16.92;;;-5.90;99.90;;;;;;5033790;28;20434;-73
2022/12/15 06:45:22;;;;;;;38.67;17.48;;;-5.90;99.90;;;;;;5026864;28;20034;-73
2022/12/15 06:47:48;;;;;;;34.55;15.90;;;-5.90;99.90;;;;;;5023301;28;20045;-73
2022/12/15 06:50:13;;;;;;;35.55;17.58;;;-5.90;99.90;;;;;;5029523;28;20115;-73
2022/12/15 06:52:40;;;;;;;34.92;17.33;;;-5.90;99.90;;;;;;5035935;28;20029;-73
2022/12/15 06:55:06;;;;;;;38.42;17.13;;;-5.90;99.90;;;;;;5035482;28;20018;-73
2022/12/15 06:57:32;;;;;;;40.90;17.02;;;-5.90;99.90;;;;;;5035097;28;20040;-73
2022/12/15 06:59:58;;;;;;;39.60;18.23;;;-5.90;99.90;;;;;;5028181;28;20207;-73
2022/12/15 07:02:24;;;;;;;42.50;19.38;;;-5.90;99.90;;;;;;5032053;28;20062;-73
2022/12/15 07:04:49;;;;;;;39.38;17.00;;;-5.90;99.90;;;;;;5031690;28;20503;-72
2022/12/15 07:07:15;;;;;;;44.88;19.25;;;-5.90;99.90;;;;;;5032061;28;20033;-73
2022/12/15 07:09:40;;;;;;;44.13;19.33;;;-6.00;99.90;;;;;;5028552;28;20485;-73
2022/12/15 07:12:08;;;;;;;42.67;17.42;;;-5.90;99.90;;;;;;5032639;28;20030;-73
2022/12/15 07:14:34;;;;;;;41.33;18.65;;;-6.00;99.90;;;;;;5034468;28;20498;-73
2022/12/15 07:16:59;;;;;;;42.97;17.98;;;-6.00;99.90;;;;;;5028243;28;20064;-73
2022/12/15 07:19:25;;;;;;;42.60;17.95;;;-6.10;99.90;;;;;;5033618;28;20400;-73
2022/12/15 07:21:51;;;;;;;40.50;17.92;;;-6.10;99.90;;;;;;5033269;28;20063;-73
2022/12/15 07:24:17;;;;;;;40.20;18.05;;;-6.10;99.90;;;;;;5025678;28;20515;-73
2022/12/15 07:26:44;;;;;;;39.50;17.42;;;-6.10;99.90;;;;;;5033198;28;20033;-73
2022/12/15 07:29:10;;;;;;;36.20;17.42;;;-6.10;99.90;;;;;;5033384;28;20116;-74
2022/12/15 07:31:36;;;;;;;43.78;18.42;;;-6.20;99.90;;;;;;5031862;28;20100;-73
2022/12/15 07:34:01;;;;;;;42.47;19.00;;;-6.20;99.90;;;;;;5020242;28;20034;-73
2022/12/15 07:36:27;;;;;;;34.40;17.75;;;-6.20;99.90;;;;;;5029054;28;20018;-74
2022/12/15 07:38:59;;;;;;;39.08;19.10;;;-6.20;99.90;;;;;;5027156;28;20029;-73
2022/12/15 07:41:25;;;;;;;40.00;17.90;;;-6.20;99.90;;;;;;5035881;28;20485;-73
2022/12/15 07:43:51;;;;;;;43.70;19.20;;;-6.20;99.90;;;;;;5034548;28;20091;-74
2022/12/15 07:46:16;;;;;;;52.28;20.75;;;-6.20;99.90;;;;;;5029969;28;20028;-73
2022/12/15 07:48:42;;;;;;;43.05;18.75;;;-6.20;99.90;;;;;;5025771;28;20063;-73
2022/12/15 07:51:09;;;;;;;44.22;20.00;;;-6.20;99.90;;;;;;5034949;28;20035;-74
2022/12/15 07:53:35;;;;;;;45.78;20.42;;;-6.30;99.90;;;;;;5030072;28;20369;-74
2022/12/15 07:56:03;;;;;;;47.58;19.58;;;-6.20;99.90;;;;;;5034290;28;20022;-74
2022/12/15 07:58:29;;;;;;;44.80;18.95;;;-6.20;99.90;;;;;;5024997;28;20044;-73
2022/12/15 08:00:59;;;;;;;51.85;22.25;;;-6.20;99.90;;;;;;5026365;28;20857;-73
2022/12/15 08:03:25;;;;;;;47.08;20.52;;;-6.20;99.90;;;;;;5031529;28;20053;-73
2022/12/15 08:05:51;;;;;;;47.33;20.65;;;-6.20;99.90;;;;;;5035804;28;20563;-73
2022/12/15 08:08:17;;;;;;;44.35;20.05;;;-6.20;99.90;;;;;;5038869;28;20025;-73
2022/12/15 08:10:43;;;;;;;41.83;19.63;;;-6.10;99.90;;;;;;5046120;28;20048;-74
2022/12/15 08:13:08;;;;;;;50.90;19.65;;;-6.10;99.90;;;;;;5033827;28;20111;-73
2022/12/15 08:15:36;;;;;;;48.88;21.13;;;-6.10;99.90;;;;;;5025640;28;20036;-74
2022/12/15 08:18:02;;;;;;;51.40;20.50;;;-6.10;99.90;;;;;;5032670;28;20033;-73
2022/12/15 08:20:29;;;;;;;48.38;21.83;;;-6.00;99.90;;;;;;5033466;28;20025;-73
2022/12/15 08:22:55;;;;;;;53.28;21.02;;;-6.00;99.90;;;;;;5016096;28;20109;-73
2022/12/15 08:25:20;;;;;;;54.95;22.20;;;-5.90;99.90;;;;;;5026985;28;20112;-73
2022/12/15 08:27:48;;;;;;;45.60;21.83;;;-5.90;99.90;;;;;;5024045;28;20040;-73
2022/12/15 08:30:14;;;;;;;44.35;21.50;;;-5.90;99.90;;;;;;5023018;28;20076;-73
2022/12/15 08:32:40;;;;;;;49.60;22.02;;;-5.80;99.90;;;;;;5022679;28;20041;-73
2022/12/15 08:35:06;;;;;;;41.83;18.70;;;-5.70;99.90;;;;;;5030520;28;20033;-73
2022/12/15 08:37:33;;;;;;;47.60;21.50;;;-5.70;99.90;;;;;;5025324;28;20080;-72
2022/12/15 08:39:58;;;;;;;41.60;18.40;;;-5.60;99.90;;;;;;5023472;28;20124;-73
2022/12/15 08:42:24;;;;;;;48.25;20.38;;;-5.50;99.90;;;;;;5026566;28;20031;-73
2022/12/15 08:44:50;;;;;;;54.67;23.70;;;-5.50;99.90;;;;;;5017497;28;20025;-71
2022/12/15 08:47:16;;;;;;;48.65;21.20;;;-5.40;99.90;;;;;;5024584;28;20033;-72
2022/12/15 08:49:41;;;;;;;46.30;20.92;;;-5.30;99.90;;;;;;5027014;28;20026;-72
2022/12/15 08:52:07;;;;;;;48.83;20.73;;;-5.20;99.90;;;;;;5023309;28;20032;-72
2022/12/15 08:54:33;;;;;;;50.17;23.33;;;-5.20;99.90;;;;;;5024330;28;20038;-71
2022/12/15 08:56:58;;;;;;;53.33;22.73;;;-5.00;99.90;;;;;;5031625;28;20022;-71
2022/12/15 08:59:24;;;;;;;51.38;23.38;;;-5.00;99.90;;;;;;5030395;28;20042;-72
2022/12/15 09:01:50;;;;;;;53.17;23.85;;;-4.90;99.90;;;;;;5030681;28;20018;-71
2022/12/15 09:04:16;;;;;;;56.50;23.45;;;-4.90;99.90;;;;;;5020775;28;20052;-72
2022/12/15 09:06:42;;;;;;;53.40;24.33;;;-4.70;99.90;;;;;;5025833;28;20815;-72
2022/12/15 09:09:10;;;;;;;52.95;22.88;;;-4.70;99.90;;;;;;5020113;28;20025;-72
2022/12/15 09:11:36;;;;;;;54.63;24.23;;;-4.60;99.90;;;;;;5024176;28;20401;-73
2022/12/15 09:14:02;;;;;;;54.63;24.63;;;-4.50;99.90;;;;;;5024983;28;20025;-72
2022/12/15 09:16:28;;;;;;;54.63;24.92;;;-4.40;99.90;;;;;;5019258;28;20033;-72
2022/12/15 09:18:56;;;;;;;44.17;20.55;;;-4.40;99.90;;;;;;5019819;28;20030;-71
2022/12/15 09:21:25;;;;;;;57.22;24.98;;;-4.30;99.90;;;;;;5028150;28;20031;-72
2022/12/15 09:23:52;;;;;;;58.72;25.38;;;-4.30;99.90;;;;;;5041003;28;20538;-72
2022/12/15 09:26:21;;;;;;;48.28;23.80;;;-4.20;99.90;;;;;;5052555;28;20491;-73
2022/12/15 09:28:46;;;;;;;53.33;25.02;;;-4.10;99.90;;;;;;5031647;28;20022;-72
2022/12/15 09:31:17;;;;;;;50.25;23.90;;;-4.00;99.90;;;;;;5019034;28;20380;-72
2022/12/15 09:33:43;;;;;;;49.28;24.30;;;-4.00;99.90;;;;;;5032157;28;20021;-72
2022/12/15 09:36:11;;;;;;;52.60;25.55;;;-3.90;99.90;;;;;;5042090;28;20039;-72
2022/12/15 09:38:39;;;;;;;47.17;23.55;;;-3.80;99.90;;;;;;5021257;28;20472;-72
2022/12/15 09:41:19;;;;;;;50.25;24.42;;;-3.80;99.90;;;;;;5025272;28;20140;-72
2022/12/15 09:43:59;;;;;;;55.80;26.73;;;-3.70;99.90;;;;;;5024177;28;20096;-72
2022/12/15 09:46:29;;;;;;;60.17;26.08;;;-3.60;99.90;;;;;;5039304;28;20036;-73
2022/12/15 09:49:00;;;;;;;54.35;24.50;;;-3.60;99.90;;;;;;5020839;28;20041;-73
2022/12/15 09:51:38;;;;;;;49.80;26.10;;;-3.50;99.90;;;;;;5020520;28;20500;-73
2022/12/15 09:54:03;;;;;;;54.22;25.45;;;-3.50;99.90;;;;;;5025587;28;20029;-72
2022/12/15 09:56:50;;;;;;;46.15;24.30;;;-3.40;99.90;;;;;;5023275;28;20441;-73
2022/12/15 09:59:19;;;;;;;53.38;24.63;;;-3.40;99.90;;;;;;5023303;28;20068;-73
2022/12/15 10:02:15;;;;;;;56.22;28.30;;;-3.30;99.90;;;;;;5023754;28;20045;-73
2022/12/15 10:04:59;;;;;;;54.67;26.48;;;-3.30;99.90;;;;;;5017005;28;20485;-73
2022/12/15 10:07:35;;;;;;;49.58;25.30;;;-3.20;99.90;;;;;;5023045;28;20025;-72
2022/12/15 10:10:31;;;;;;;55.67;25.48;;;-3.10;99.90;;;;;;5019117;28;20105;-73
2022/12/15 10:13:03;;;;;;;51.00;25.88;;;-3.10;99.90;;;;;;5022660;28;20112;-73
2022/12/15 10:15:43;;;;;;;55.42;24.75;;;-3.00;99.90;;;;;;5033743;28;20485;-74
2022/12/15 10:18:21;;;;;;;50.13;24.60;;;-2.90;99.90;;;;;;5031496;28;20041;-72
2022/12/15 10:20:46;;;;;;;57.35;27.55;;;-2.90;99.90;;;;;;5043126;28;20029;-73
2022/12/15 10:23:15;;;;;;;56.97;27.08;;;-2.80;99.90;;;;;;5028798;28;20026;-73
2022/12/15 10:25:48;;;;;;;55.92;29.15;;;-2.70;99.90;;;;;;5017730;28;20026;-73
2022/12/15 10:29:01;;;;;;;55.05;28.23;;;-2.60;99.90;;;;;;5040751;28;20021;-73
2022/12/15 10:31:48;;;;;;;58.17;26.95;;;-2.50;99.90;;;;;;4968421;28;20030;-73
2022/12/15 10:34:36;;;;;;;61.00;28.77;;;-2.50;99.90;;;;;;5032095;28;20037;-73
2022/12/15 10:37:02;;;;;;;54.15;28.08;;;-2.30;99.90;;;;;;5031606;28;20116;-73
2022/12/15 10:39:42;;;;;;;56.50;27.70;;;-2.30;99.90;;;;;;5029719;28;20133;-74
2022/12/15 10:42:14;;;;;;;50.60;25.48;;;-2.10;99.90;;;;;;5029343;28;20699;-73
2022/12/15 10:44:44;;;;;;;57.33;29.08;;;-2.10;99.90;;;;;;5022826;28;20033;-73
2022/12/15 10:47:17;;;;;;;54.97;27.80;;;-2.00;99.90;;;;;;5025689;28;20026;-72
2022/12/15 10:49:44;;;;;;;57.42;28.80;;;-2.00;99.90;;;;;;5028387;28;20036;-72
2022/12/15 10:52:35;;;;;;;53.13;26.13;;;-1.90;99.90;;;;;;5014249;28;20377;-73
2022/12/15 10:55:01;;;;;;;57.13;27.23;;;-1.80;99.90;;;;;;5031645;28;20491;-74
2022/12/15 10:57:30;;;;;;;53.33;28.02;;;-1.70;99.90;;;;;;5027669;28;20388;-74
2022/12/15 11:00:34;;;;;;;52.83;27.80;;;-1.60;99.90;;;;;;5024786;28;20037;-72
2022/12/15 11:03:00;;;;;;;54.17;27.48;;;-1.50;99.90;;;;;;5023373;28;20061;-72
2022/12/15 11:05:26;;;;;;;54.20;28.30;;;-1.50;99.90;;;;;;5032181;28;20049;-72
2022/12/15 11:08:13;;;;;;;54.28;28.58;;;-1.40;99.90;;;;;;5028564;28;20033;-71
2022/12/15 11:14:03;;;;;;;51.55;27.67;;;-1.30;99.90;;;;;;5031739;28;20040;-71
2022/12/15 11:16:30;;;;;;;52.65;29.60;;;-1.20;99.90;;;;;;5033226;28;20048;-72
2022/12/15 11:19:12;;;;;;;52.22;27.25;;;-1.10;99.90;;;;;;5034624;28;20026;-72
2022/12/15 11:21:44;;;;;;;49.67;28.65;;;-1.10;99.90;;;;;;5025087;28;20036;-72
2022/12/15 11:24:33;;;;;;;63.28;31.15;;;-1.00;99.90;;;;;;5033282;28;20121;-72
2022/12/15 11:27:18;;;;;;;56.92;28.33;;;-0.90;99.90;;;;;;5041981;28;20053;-72
2022/12/15 11:30:16;;;;;;;56.85;29.38;;;-0.90;99.90;;;;;;5037781;28;20028;-72
2022/12/15 11:32:46;;;;;;;49.20;28.98;;;-0.80;99.90;;;;;;5033097;28;20017;-72
2022/12/15 11:35:19;;;;;;;51.47;28.08;;;-0.80;99.90;;;;;;5020877;28;20052;-73
2022/12/15 11:37:54;;;;;;;62.03;30.67;;;-0.70;99.90;;;;;;5037237;28;20104;-73
2022/12/15 11:40:37;;;;;;;57.40;31.15;;;-0.60;99.90;;;;;;5043330;28;20055;-73
2022/12/15 11:43:28;;;;;;;;;;;-0.60;99.90;;;;;;5036077;28;20022;-73
2022/12/15 11:46:16;;;;;;;54.72;28.83;;;-0.60;99.90;;;;;;5031386;28;20261;-73
2022/12/15 11:49:20;;;;;;;56.28;30.65;;;-0.50;99.90;;;;;;5034496;28;20036;-73
2022/12/15 11:54:38;;;;;;;57.53;30.65;;;-0.40;99.90;;;;;;5037936;23;20057;-73
2022/12/15 11:57:33;;;;;;;54.50;29.38;;;-0.30;99.90;;;;;;5055018;22;20050;-72
2022/12/15 12:00:14;;;;;;;52.20;30.70;;;-0.20;99.90;;;;;;5002876;28;20121;-73
2022/12/15 12:03:03;;;;;;;46.28;25.98;;;-0.20;99.90;;;;;;5004047;28;20033;-73
2022/12/15 12:05:58;;;;;;;55.00;30.90;;;-0.10;99.90;;;;;;4991994;28;20038;-74
2022/12/15 12:08:34;;;;;;;54.00;31.15;;;0.00;99.90;;;;;;5003481;28;20034;-73
2022/12/15 12:11:38;;;;;;;54.70;30.30;;;0.00;99.90;;;;;;4989732;28;20029;-73
2022/12/15 12:14:23;;;;;;;58.33;31.00;;;0.20;99.90;;;;;;4976901;28;20057;-73
2022/12/15 12:17:07;;;;;;;56.55;31.65;;;0.30;99.90;;;;;;5009879;28;20030;-73
2022/12/15 12:19:48;;;;;;;52.47;31.63;;;0.40;99.90;;;;;;4985456;28;20034;-73
2022/12/15 12:22:39;;;;;;;56.30;31.58;;;0.50;99.90;;;;;;4992697;28;20018;-73
2022/12/15 12:25:25;;;;;;;56.45;29.42;;;0.50;99.90;;;;;;4994491;28;20030;-73
2022/12/15 12:27:59;;;;;;;50.95;30.05;;;0.50;99.90;;;;;;4992765;28;20084;-73
2022/12/15 12:30:31;;;;;;;53.25;28.05;;;0.50;99.90;;;;;;4992772;28;20026;-73
2022/12/15 12:33:10;;;;;;;52.47;29.85;;;0.50;99.90;;;;;;4994693;28;20117;-73
2022/12/15 12:35:45;;;;;;;53.72;29.40;;;0.60;99.90;;;;;;4994287;28;20097;-73
2022/12/15 12:38:11;;;;;;;52.22;29.02;;;0.70;99.90;;;;;;4986701;28;20043;-73
2022/12/15 12:41:01;;;;;;;53.83;28.80;;;0.70;99.90;;;;;;4986201;28;20027;-73
2022/12/15 12:43:32;;;;;;;49.70;28.13;;;0.80;99.90;;;;;;4992319;28;20019;-73
2022/12/15 12:46:08;;;;;;;51.03;27.63;;;0.80;99.90;;;;;;4975182;28;20102;-74
2022/12/15 12:48:55;;;;;;;56.00;29.58;;;1.00;99.90;;;;;;4989328;28;20025;-73
2022/12/15 12:51:20;;;;;;;47.72;27.13;;;1.10;99.90;;;;;;4991294;28;20042;-73
2022/12/15 12:53:46;;;;;;;49.45;27.50;;;1.10;99.90;;;;;;4974426;28;20030;-73
2022/12/15 12:56:31;;;;;;;54.63;29.58;;;1.10;99.90;;;;;;4972918;28;20045;-72
2022/12/15 12:58:57;;;;;;;49.97;28.13;;;1.10;99.90;;;;;;4986104;28;20042;-73
2022/12/15 13:01:32;;;;;;;49.65;28.42;;;1.00;99.90;;;;;;4993804;28;20133;-74
2022/12/15 13:04:08;;;;;;;51.42;28.98;;;0.90;99.90;;;;;;4994620;28;20030;-72
2022/12/15 13:06:34;;;;;;;48.80;27.60;;;0.80;99.90;;;;;;4993611;28;20073;-75
2022/12/15 13:09:21;;;;;;;47.90;27.02;;;0.80;99.90;;;;;;4987544;28;20038;-73
2022/12/15 13:12:00;;;;;;;53.40;29.02;;;0.80;99.90;;;;;;4993082;28;20065;-73
2022/12/15 13:14:43;;;;;;;51.05;28.38;;;0.90;99.90;;;;;;4993377;28;20088;-73
2022/12/15 13:17:16;;;;;;;47.28;27.02;;;0.90;99.90;;;;;;4993165;28;20030;-72
2022/12/15 13:20:20;;;;;;;57.22;29.52;;;1.00;99.90;;;;;;4991329;28;20034;-74
2022/12/15 13:22:45;;;;;;;;;;;1.10;99.90;;;;;;4990184;28;20027;-73
2022/12/15 13:25:34;;;;;;;52.95;27.92;;;1.10;99.90;;;;;;4989827;28;19960;-72
2022/12/15 13:28:32;;;;;;;49.22;28.38;;;1.10;99.90;;;;;;4991343;28;20041;-73
2022/12/15 13:31:16;;;;;;;51.97;28.45;;;1.10;99.90;;;;;;4991234;28;20025;-72
2022/12/15 13:33:48;;;;;;;51.80;27.60;;;1.10;99.90;;;;;;4991710;28;20394;-73
2022/12/15 13:36:35;;;;;;;49.88;28.05;;;1.10;99.90;;;;;;4991762;28;20482;-73
2022/12/15 13:39:02;;;;;;;41.20;23.70;;;1.10;99.90;;;;;;4990488;28;20038;-73
2022/12/15 13:41:28;;;;;;;50.22;27.63;;;1.00;99.90;;;;;;4990663;28;20505;-73
2022/12/15 13:43:54;;;;;;;53.03;28.58;;;0.90;99.90;;;;;;4991736;28;20030;-72
2022/12/15 13:46:28;;;;;;;59.08;30.40;;;0.90;99.90;;;;;;4991409;28;20065;-73
2022/12/15 13:49:11;;;;;;;50.65;28.02;;;0.80;99.90;;;;;;4987295;28;20029;-72
2022/12/15 13:51:44;;;;;;;50.22;27.70;;;0.80;99.90;;;;;;4989309;28;20022;-73
2022/12/15 13:54:28;;;;;;;52.58;29.17;;;0.80;99.90;;;;;;4990092;28;20030;-72
2022/12/15 13:57:26;;;;;;;56.85;27.70;;;0.90;99.90;;;;;;4990765;28;20565;-72
2022/12/15 14:00:00;;;;;;;52.95;28.85;;;1.00;99.90;;;;;;4981595;28;20060;-74
2022/12/15 14:02:33;;;;;;;48.83;27.83;;;1.10;99.90;;;;;;4991255;28;20023;-74
2022/12/15 14:05:21;;;;;;;47.42;27.55;;;1.20;99.90;;;;;;4990011;28;20041;-73
2022/12/15 14:07:58;;;;;;;49.75;27.95;;;1.20;99.90;;;;;;4989883;28;20026;-74
2022/12/15 14:10:31;;;;;;;52.63;27.80;;;1.10;99.90;;;;;;4991530;28;20360;-74
2022/12/15 14:13:00;;;;;;;48.97;26.08;;;1.10;99.90;;;;;;4987547;28;20467;-73
2022/12/15 14:15:33;;;;;;;46.35;25.80;;;1.10;99.90;;;;;;4989141;28;20034;-74
2022/12/15 14:18:00;;;;;;;49.78;26.52;;;1.10;99.90;;;;;;4990813;28;20368;-73
2022/12/15 14:20:40;;;;;;;45.28;26.15;;;1.10;99.90;;;;;;4991859;28;20019;-73
2022/12/15 14:23:19;;;;;;;44.38;24.75;;;1.10;99.90;;;;;;4991228;28;20069;-73
2022/12/15 14:26:06;;;;;;;46.78;26.10;;;1.10;99.90;;;;;;4988344;28;20223;-73
2022/12/15 14:28:37;;;;;;;48.17;26.73;;;1.10;99.90;;;;;;4989226;28;20053;-72
2022/12/15 14:31:23;;;;;;;50.25;27.75;;;1.00;99.90;;;;;;4990919;28;20033;-73
2022/12/15 14:34:15;;;;;;;47.90;27.95;;;1.00;99.90;;;;;;4986676;28;20030;-74
2022/12/15 14:36:43;;;;;;;50.72;27.88;;;1.00;99.90;;;;;;4987093;28;20100;-74
2022/12/15 14:39:42;;;;;;;56.28;29.67;;;0.90;99.90;;;;;;4991577;28;20136;-74
2022/12/15 14:42:22;;;;;;;49.50;28.15;;;0.90;99.90;;;;;;4987099;28;20069;-73
2022/12/15 14:44:49;;;;;;;52.53;29.38;;;0.80;99.90;;;;;;4992014;28;20026;-73
2022/12/15 14:47:25;;;;;;;52.60;29.17;;;0.80;99.90;;;;;;4992223;28;20025;-73
2022/12/15 14:49:52;;;;;;;54.67;30.98;;;0.80;99.90;;;;;;4991962;28;20038;-74
2022/12/15 14:52:38;;;;;;;55.05;31.35;;;0.70;99.90;;;;;;4992379;28;20025;-73
2022/12/15 14:55:26;;;;;;;55.20;28.65;;;0.70;99.90;;;;;;4984498;28;20034;-73
2022/12/15 14:57:53;;;;;;;51.40;31.55;;;0.60;99.90;;;;;;4991752;28;20474;-74
2022/12/15 15:00:35;;;;;;;61.67;37.33;;;0.50;99.90;;;;;;4992460;28;20498;-73
2022/12/15 15:03:13;;;;;;;63.20;38.30;;;0.50;99.90;;;;;;4995126;28;20465;-73
2022/12/15 15:05:41;;;;;;;54.95;33.20;;;0.50;99.90;;;;;;4991608;28;20394;-73
2022/12/15 15:08:19;;;;;;;58.47;30.98;;;0.50;99.90;;;;;;4994515;28;20031;-73
2022/12/15 15:10:45;;;;;;;55.25;30.48;;;0.50;99.90;;;;;;4993049;28;20018;-73
2022/12/15 15:13:20;;;;;;;58.78;32.88;;;0.50;99.90;;;;;;4993362;28;20030;-73
2022/12/15 15:16:00;;;;;;;63.90;39.78;;;0.50;99.90;;;;;;4993259;28;20532;-73
2022/12/15 15:18:28;;;;;;;61.65;36.53;;;0.50;99.90;;;;;;4988772;28;20053;-73
2022/12/15 15:21:03;;;;;;;59.05;34.72;;;0.50;99.90;;;;;;4991262;28;20081;-73
2022/12/15 15:23:30;;;;;;;65.00;41.35;;;0.50;99.90;;;;;;4995369;28;20545;-73